Terminal Aerodrome Forecast
Issued by NWS

Home | Current Version | Previous Version | Text Only | Print | Product List | Glossary On
Versions: 1 2 3 4 5 6 7 8 9 10 11 12 13
000
FTUS43 KSGF 072325
TAFJLN
TAF
KJLN 072325Z 0800/0824 02010KT 6SM -SN BKN015 OVC040
      TEMPO 0801/0803 3SM -SN OVC015
     FM080400 35010KT P6SM OVC015
     FM080600 35009KT P6SM BKN025
     FM080800 34009KT P6SM SKC
     FM081400 34012G18KT P6SM SKC=

USA.gov is the U.S. government's official web portal to all federal, state and local government web resources and services.